Pennington, California
Current Conditions -  °F | °C
As of 5:18 AM on Friday 24 Oct 2014 (Local Time) from KMYV Reporting Station
Moderate Fog Moderate Fog  
Wind Chill: 48°   Ceiling: 200
Heat Index: 48°   Visibility: 0.25mi
Dew Point: 48°   Wind: 0mph
Humidity: 100%   Direction: NA
Pressure: 29.97"   Gusts: NA
Location:  39.2462°N, 121.778°W
Report Text: KMYV 241218Z AUTO 00000KT 1/4SM FG VV002 09/09 A2997 RMK AO2 T00890089
Loading
Personal Weather Stations






























Interactive Weather Map
Tropical Storm Tracking
New forecast layout! Learn more

10-Day Weather Forecast

Advertisements
Track Severe Weather on mobile